sensor_id;sensor_type;location;lat;lon;timestamp;P1;durP1;ratioP1;P2;durP2;ratioP2
76320;SDS011;65132;52.088;5.402;2023-01-28T00:01:03;8.27;;;4.00;;
76320;SDS011;65132;52.088;5.402;2023-01-28T00:03:34;10.93;;;5.05;;
76320;SDS011;65132;52.088;5.402;2023-01-28T00:06:02;11.13;;;5.22;;
76320;SDS011;65132;52.088;5.402;2023-01-28T00:08:39;8.30;;;4.00;;
76320;SDS011;65132;52.088;5.402;2023-01-28T00:11:06;8.27;;;4.15;;
76320;SDS011;65132;52.088;5.402;2023-01-28T00:13:35;8.70;;;4.10;;
76320;SDS011;65132;52.088;5.402;2023-01-28T00:16:03;10.18;;;4.68;;
76320;SDS011;65132;52.088;5.402;2023-01-28T00:18:31;9.57;;;4.72;;
76320;SDS011;65132;52.088;5.402;2023-01-28T00:21:01;9.38;;;4.00;;
76320;SDS011;65132;52.088;5.402;2023-01-28T00:23:30;8.13;;;3.80;;
76320;SDS011;65132;52.088;5.402;2023-01-28T00:25:59;10.20;;;4.97;;
76320;SDS011;65132;52.088;5.402;2023-01-28T00:28:27;8.25;;;3.80;;
76320;SDS011;65132;52.088;5.402;2023-01-28T00:30:54;8.13;;;4.32;;
76320;SDS011;65132;52.088;5.402;2023-01-28T00:33:20;7.78;;;4.05;;
76320;SDS011;65132;52.088;5.402;2023-01-28T00:35:55;8.20;;;4.13;;
76320;SDS011;65132;52.088;5.402;2023-01-28T00:38:23;8.35;;;3.78;;
76320;SDS011;65132;52.088;5.402;2023-01-28T00:40:49;8.98;;;4.40;;
76320;SDS011;65132;52.088;5.402;2023-01-28T00:43:16;8.00;;;3.92;;
76320;SDS011;65132;52.088;5.402;2023-01-28T00:45:42;9.43;;;4.90;;
76320;SDS011;65132;52.088;5.402;2023-01-28T00:48:09;9.30;;;4.05;;
76320;SDS011;65132;52.088;5.402;2023-01-28T00:50:36;8.77;;;4.72;;
76320;SDS011;65132;52.088;5.402;2023-01-28T00:53:02;9.10;;;4.43;;
76320;SDS011;65132;52.088;5.402;2023-01-28T00:55:29;9.85;;;4.72;;
76320;SDS011;65132;52.088;5.402;2023-01-28T00:57:57;9.20;;;4.47;;
76320;SDS011;65132;52.088;5.402;2023-01-28T01:00:23;8.95;;;4.35;;
76320;SDS011;65132;52.088;5.402;2023-01-28T01:02:50;8.18;;;4.45;;
76320;SDS011;65132;52.088;5.402;2023-01-28T01:05:17;9.07;;;4.20;;
76320;SDS011;65132;52.088;5.402;2023-01-28T01:07:44;10.05;;;4.93;;
76320;SDS011;65132;52.088;5.402;2023-01-28T01:10:17;8.48;;;4.07;;
76320;SDS011;65132;52.088;5.402;2023-01-28T01:12:45;9.90;;;5.03;;
76320;SDS011;65132;52.088;5.402;2023-01-28T01:15:13;8.15;;;4.25;;
76320;SDS011;65132;52.088;5.402;2023-01-28T01:17:41;8.73;;;4.65;;
76320;SDS011;65132;52.088;5.402;2023-01-28T01:20:16;9.77;;;4.30;;
76320;SDS011;65132;52.088;5.402;2023-01-28T01:22:45;8.90;;;4.22;;
76320;SDS011;65132;52.088;5.402;2023-01-28T01:25:13;9.27;;;4.57;;
76320;SDS011;65132;52.088;5.402;2023-01-28T01:27:42;8.82;;;4.28;;
76320;SDS011;65132;52.088;5.402;2023-01-28T01:30:13;9.55;;;4.43;;
76320;SDS011;65132;52.088;5.402;2023-01-28T01:32:40;9.00;;;4.53;;
76320;SDS011;65132;52.088;5.402;2023-01-28T01:35:08;10.00;;;4.80;;
76320;SDS011;65132;52.088;5.402;2023-01-28T01:37:42;10.02;;;4.72;;
76320;SDS011;65132;52.088;5.402;2023-01-28T01:40:09;8.55;;;4.07;;
76320;SDS011;65132;52.088;5.402;2023-01-28T01:42:37;11.32;;;5.35;;
76320;SDS011;65132;52.088;5.402;2023-01-28T01:45:07;9.68;;;4.65;;
76320;SDS011;65132;52.088;5.402;2023-01-28T01:53:29;9.52;;;5.05;;
76320;SDS011;65132;52.088;5.402;2023-01-28T01:55:57;10.85;;;5.05;;
76320;SDS011;65132;52.088;5.402;2023-01-28T01:58:28;10.18;;;4.70;;
76320;SDS011;65132;52.088;5.402;2023-01-28T02:00:59;10.15;;;4.07;;
76320;SDS011;65132;52.088;5.402;2023-01-28T02:03:31;10.15;;;4.30;;
76320;SDS011;65132;52.088;5.402;2023-01-28T02:06:07;9.35;;;4.75;;
76320;SDS011;65132;52.088;5.402;2023-01-28T02:08:33;10.07;;;4.68;;
76320;SDS011;65132;52.088;5.402;2023-01-28T02:11:01;9.82;;;5.45;;
76320;SDS011;65132;52.088;5.402;2023-01-28T02:13:32;11.23;;;4.72;;
76320;SDS011;65132;52.088;5.402;2023-01-28T02:16:02;9.07;;;4.40;;
76320;SDS011;65132;52.088;5.402;2023-01-28T02:18:30;9.40;;;4.50;;
76320;SDS011;65132;52.088;5.402;2023-01-28T02:26:54;9.63;;;4.05;;
76320;SDS011;65132;52.088;5.402;2023-01-28T02:29:43;9.65;;;3.92;;
76320;SDS011;65132;52.088;5.402;2023-01-28T02:32:20;10.80;;;4.90;;
76320;SDS011;65132;52.088;5.402;2023-01-28T02:34:57;11.75;;;4.78;;
76320;SDS011;65132;52.088;5.402;2023-01-28T02:37:37;8.73;;;4.03;;
76320;SDS011;65132;52.088;5.402;2023-01-28T02:40:10;12.73;;;4.82;;
76320;SDS011;65132;52.088;5.402;2023-01-28T02:42:41;10.05;;;4.28;;
76320;SDS011;65132;52.088;5.402;2023-01-28T02:45:14;10.13;;;4.53;;
76320;SDS011;65132;52.088;5.402;2023-01-28T02:47:45;10.95;;;4.85;;
76320;SDS011;65132;52.088;5.402;2023-01-28T02:50:16;9.18;;;4.45;;
76320;SDS011;65132;52.088;5.402;2023-01-28T02:55:52;9.50;;;4.20;;
76320;SDS011;65132;52.088;5.402;2023-01-28T02:58:40;8.57;;;3.83;;
76320;SDS011;65132;52.088;5.402;2023-01-28T03:01:35;9.32;;;3.97;;
76320;SDS011;65132;52.088;5.402;2023-01-28T03:04:17;9.07;;;4.25;;
76320;SDS011;65132;52.088;5.402;2023-01-28T03:06:49;9.57;;;4.55;;
76320;SDS011;65132;52.088;5.402;2023-01-28T03:09:22;10.00;;;4.55;;
76320;SDS011;65132;52.088;5.402;2023-01-28T03:14:19;8.88;;;4.10;;
76320;SDS011;65132;52.088;5.402;2023-01-28T03:16:46;8.93;;;4.07;;
76320;SDS011;65132;52.088;5.402;2023-01-28T03:19:14;9.27;;;4.70;;
76320;SDS011;65132;52.088;5.402;2023-01-28T03:21:43;10.60;;;4.75;;
76320;SDS011;65132;52.088;5.402;2023-01-28T03:24:15;11.27;;;4.78;;
76320;SDS011;65132;52.088;5.402;2023-01-28T03:26:57;9.65;;;4.38;;
76320;SDS011;65132;52.088;5.402;2023-01-28T03:29:30;8.98;;;3.72;;
76320;SDS011;65132;52.088;5.402;2023-01-28T03:32:00;9.68;;;4.53;;
76320;SDS011;65132;52.088;5.402;2023-01-28T03:34:26;8.95;;;4.35;;
76320;SDS011;65132;52.088;5.402;2023-01-28T03:36:53;9.00;;;3.95;;
76320;SDS011;65132;52.088;5.402;2023-01-28T03:39:27;10.55;;;4.60;;
76320;SDS011;65132;52.088;5.402;2023-01-28T03:41:59;10.48;;;4.25;;
76320;SDS011;65132;52.088;5.402;2023-01-28T03:44:29;10.05;;;4.38;;
76320;SDS011;65132;52.088;5.402;2023-01-28T03:46:56;8.50;;;4.00;;
76320;SDS011;65132;52.088;5.402;2023-01-28T03:49:23;9.95;;;4.43;;
76320;SDS011;65132;52.088;5.402;2023-01-28T03:51:49;9.75;;;4.47;;
76320;SDS011;65132;52.088;5.402;2023-01-28T03:54:16;9.50;;;4.13;;
76320;SDS011;65132;52.088;5.402;2023-01-28T03:56:42;8.73;;;4.05;;
76320;SDS011;65132;52.088;5.402;2023-01-28T03:59:08;13.25;;;4.57;;
76320;SDS011;65132;52.088;5.402;2023-01-28T04:01:35;8.95;;;3.45;;
76320;SDS011;65132;52.088;5.402;2023-01-28T04:04:01;11.43;;;4.82;;
76320;SDS011;65132;52.088;5.402;2023-01-28T04:06:29;9.48;;;4.13;;
76320;SDS011;65132;52.088;5.402;2023-01-28T04:08:56;9.93;;;5.15;;
76320;SDS011;65132;52.088;5.402;2023-01-28T04:11:22;10.18;;;4.53;;
76320;SDS011;65132;52.088;5.402;2023-01-28T04:13:48;11.30;;;4.63;;
76320;SDS011;65132;52.088;5.402;2023-01-28T04:16:15;9.30;;;4.20;;
76320;SDS011;65132;52.088;5.402;2023-01-28T04:18:43;11.25;;;5.03;;
76320;SDS011;65132;52.088;5.402;2023-01-28T04:21:10;8.93;;;4.57;;
76320;SDS011;65132;52.088;5.402;2023-01-28T04:23:37;9.57;;;4.60;;
76320;SDS011;65132;52.088;5.402;2023-01-28T04:26:04;9.98;;;3.92;;
76320;SDS011;65132;52.088;5.402;2023-01-28T04:28:30;9.65;;;4.90;;
76320;SDS011;65132;52.088;5.402;2023-01-28T04:30:57;10.98;;;4.35;;
76320;SDS011;65132;52.088;5.402;2023-01-28T04:33:23;10.23;;;3.95;;
76320;SDS011;65132;52.088;5.402;2023-01-28T04:35:50;9.32;;;4.55;;
76320;SDS011;65132;52.088;5.402;2023-01-28T04:38:16;11.18;;;5.10;;
76320;SDS011;65132;52.088;5.402;2023-01-28T04:40:43;10.20;;;5.00;;
76320;SDS011;65132;52.088;5.402;2023-01-28T04:43:09;8.68;;;4.13;;
76320;SDS011;65132;52.088;5.402;2023-01-28T04:45:35;9.50;;;4.03;;
76320;SDS011;65132;52.088;5.402;2023-01-28T04:48:02;10.40;;;4.32;;
76320;SDS011;65132;52.088;5.402;2023-01-28T04:50:29;10.43;;;4.38;;
76320;SDS011;65132;52.088;5.402;2023-01-28T04:52:55;11.13;;;4.82;;
76320;SDS011;65132;52.088;5.402;2023-01-28T04:55:21;9.35;;;3.95;;
76320;SDS011;65132;52.088;5.402;2023-01-28T04:57:48;8.38;;;4.00;;
76320;SDS011;65132;52.088;5.402;2023-01-28T05:00:15;8.43;;;3.92;;
76320;SDS011;65132;52.088;5.402;2023-01-28T05:02:42;7.55;;;3.88;;
76320;SDS011;65132;52.088;5.402;2023-01-28T05:05:08;9.52;;;4.18;;
76320;SDS011;65132;52.088;5.402;2023-01-28T05:07:35;9.43;;;4.05;;
76320;SDS011;65132;52.088;5.402;2023-01-28T05:10:02;9.07;;;4.57;;
76320;SDS011;65132;52.088;5.402;2023-01-28T05:12:29;8.98;;;4.00;;
76320;SDS011;65132;52.088;5.402;2023-01-28T05:14:56;8.15;;;3.88;;
76320;SDS011;65132;52.088;5.402;2023-01-28T05:17:22;7.57;;;4.15;;
76320;SDS011;65132;52.088;5.402;2023-01-28T05:19:49;10.70;;;4.55;;
76320;SDS011;65132;52.088;5.402;2023-01-28T05:22:15;8.82;;;4.32;;
76320;SDS011;65132;52.088;5.402;2023-01-28T05:24:42;9.27;;;3.90;;
76320;SDS011;65132;52.088;5.402;2023-01-28T05:27:08;8.25;;;4.07;;
76320;SDS011;65132;52.088;5.402;2023-01-28T05:29:36;8.93;;;4.63;;
76320;SDS011;65132;52.088;5.402;2023-01-28T05:32:03;9.13;;;4.72;;
76320;SDS011;65132;52.088;5.402;2023-01-28T05:34:29;8.10;;;3.80;;
76320;SDS011;65132;52.088;5.402;2023-01-28T05:36:56;8.55;;;3.92;;
76320;SDS011;65132;52.088;5.402;2023-01-28T05:39:23;8.93;;;4.15;;
76320;SDS011;65132;52.088;5.402;2023-01-28T05:41:49;9.60;;;4.43;;
76320;SDS011;65132;52.088;5.402;2023-01-28T05:44:16;8.27;;;4.57;;
76320;SDS011;65132;52.088;5.402;2023-01-28T05:46:42;10.73;;;4.10;;
76320;SDS011;65132;52.088;5.402;2023-01-28T05:49:08;9.35;;;4.10;;
76320;SDS011;65132;52.088;5.402;2023-01-28T05:51:35;8.48;;;4.50;;
76320;SDS011;65132;52.088;5.402;2023-01-28T05:54:01;8.98;;;4.20;;
76320;SDS011;65132;52.088;5.402;2023-01-28T05:56:28;9.13;;;4.32;;
76320;SDS011;65132;52.088;5.402;2023-01-28T05:58:54;9.90;;;3.70;;
76320;SDS011;65132;52.088;5.402;2023-01-28T06:01:21;9.45;;;3.80;;
76320;SDS011;65132;52.088;5.402;2023-01-28T06:03:47;9.18;;;3.78;;
76320;SDS011;65132;52.088;5.402;2023-01-28T06:06:14;9.95;;;4.57;;
76320;SDS011;65132;52.088;5.402;2023-01-28T06:08:40;7.93;;;3.47;;
76320;SDS011;65132;52.088;5.402;2023-01-28T06:11:07;10.10;;;4.35;;
76320;SDS011;65132;52.088;5.402;2023-01-28T06:13:36;9.13;;;4.22;;
76320;SDS011;65132;52.088;5.402;2023-01-28T06:16:03;10.52;;;4.80;;
76320;SDS011;65132;52.088;5.402;2023-01-28T06:18:30;9.27;;;4.00;;
76320;SDS011;65132;52.088;5.402;2023-01-28T06:20:56;8.82;;;4.15;;
76320;SDS011;65132;52.088;5.402;2023-01-28T06:23:23;10.07;;;3.75;;
76320;SDS011;65132;52.088;5.402;2023-01-28T06:25:53;8.93;;;3.67;;
76320;SDS011;65132;52.088;5.402;2023-01-28T06:28:21;8.40;;;3.78;;
76320;SDS011;65132;52.088;5.402;2023-01-28T06:30:49;8.35;;;3.92;;
76320;SDS011;65132;52.088;5.402;2023-01-28T06:33:17;8.93;;;3.80;;
76320;SDS011;65132;52.088;5.402;2023-01-28T06:35:44;10.77;;;4.85;;
76320;SDS011;65132;52.088;5.402;2023-01-28T06:38:11;9.20;;;4.15;;
76320;SDS011;65132;52.088;5.402;2023-01-28T06:40:38;9.18;;;4.18;;
76320;SDS011;65132;52.088;5.402;2023-01-28T06:43:05;9.90;;;4.40;;
76320;SDS011;65132;52.088;5.402;2023-01-28T06:45:34;9.68;;;4.45;;
76320;SDS011;65132;52.088;5.402;2023-01-28T06:48:03;8.73;;;3.92;;
76320;SDS011;65132;52.088;5.402;2023-01-28T06:50:33;11.40;;;4.20;;
76320;SDS011;65132;52.088;5.402;2023-01-28T06:53:00;10.70;;;3.97;;
76320;SDS011;65132;52.088;5.402;2023-01-28T06:55:26;10.98;;;4.50;;
76320;SDS011;65132;52.088;5.402;2023-01-28T06:57:53;10.45;;;4.20;;
76320;SDS011;65132;52.088;5.402;2023-01-28T07:00:19;10.63;;;3.60;;
76320;SDS011;65132;52.088;5.402;2023-01-28T07:02:46;10.13;;;4.25;;
76320;SDS011;65132;52.088;5.402;2023-01-28T07:05:12;9.70;;;4.35;;
76320;SDS011;65132;52.088;5.402;2023-01-28T07:07:39;9.25;;;4.03;;
76320;SDS011;65132;52.088;5.402;2023-01-28T07:10:08;11.30;;;4.57;;
76320;SDS011;65132;52.088;5.402;2023-01-28T07:12:35;11.80;;;4.70;;
76320;SDS011;65132;52.088;5.402;2023-01-28T07:15:01;10.95;;;3.97;;
76320;SDS011;65132;52.088;5.402;2023-01-28T07:17:28;9.85;;;4.57;;
76320;SDS011;65132;52.088;5.402;2023-01-28T07:19:55;10.23;;;4.28;;
76320;SDS011;65132;52.088;5.402;2023-01-28T07:22:21;9.23;;;4.28;;
76320;SDS011;65132;52.088;5.402;2023-01-28T07:24:48;9.18;;;3.63;;
76320;SDS011;65132;52.088;5.402;2023-01-28T07:27:14;11.82;;;4.63;;
76320;SDS011;65132;52.088;5.402;2023-01-28T07:29:41;11.63;;;4.15;;
76320;SDS011;65132;52.088;5.402;2023-01-28T07:32:07;10.82;;;4.35;;
76320;SDS011;65132;52.088;5.402;2023-01-28T07:34:34;10.35;;;5.03;;
76320;SDS011;65132;52.088;5.402;2023-01-28T07:37:01;10.32;;;4.03;;
76320;SDS011;65132;52.088;5.402;2023-01-28T07:39:27;11.10;;;4.30;;
76320;SDS011;65132;52.088;5.402;2023-01-28T07:41:56;9.00;;;4.03;;
76320;SDS011;65132;52.088;5.402;2023-01-28T07:44:22;10.40;;;4.60;;
76320;SDS011;65132;52.088;5.402;2023-01-28T07:46:48;11.85;;;4.70;;
76320;SDS011;65132;52.088;5.402;2023-01-28T07:49:15;8.90;;;4.28;;
76320;SDS011;65132;52.088;5.402;2023-01-28T07:51:41;9.43;;;4.07;;
76320;SDS011;65132;52.088;5.402;2023-01-28T07:54:08;10.77;;;4.50;;
76320;SDS011;65132;52.088;5.402;2023-01-28T07:56:34;10.82;;;4.82;;
76320;SDS011;65132;52.088;5.402;2023-01-28T07:59:01;10.80;;;4.75;;
76320;SDS011;65132;52.088;5.402;2023-01-28T08:01:27;9.88;;;4.00;;
76320;SDS011;65132;52.088;5.402;2023-01-28T08:03:54;10.77;;;4.20;;
76320;SDS011;65132;52.088;5.402;2023-01-28T08:06:23;9.70;;;4.18;;
76320;SDS011;65132;52.088;5.402;2023-01-28T08:08:49;10.93;;;4.55;;
76320;SDS011;65132;52.088;5.402;2023-01-28T08:11:16;11.35;;;4.07;;
76320;SDS011;65132;52.088;5.402;2023-01-28T08:13:44;11.55;;;4.78;;
76320;SDS011;65132;52.088;5.402;2023-01-28T08:16:10;11.52;;;3.83;;
76320;SDS011;65132;52.088;5.402;2023-01-28T08:18:37;13.48;;;5.38;;
76320;SDS011;65132;52.088;5.402;2023-01-28T08:21:03;9.48;;;4.05;;
76320;SDS011;65132;52.088;5.402;2023-01-28T08:23:30;8.75;;;3.85;;
76320;SDS011;65132;52.088;5.402;2023-01-28T08:25:57;10.77;;;4.55;;
76320;SDS011;65132;52.088;5.402;2023-01-28T08:28:24;13.25;;;5.18;;
76320;SDS011;65132;52.088;5.402;2023-01-28T08:30:50;11.25;;;4.78;;
76320;SDS011;65132;52.088;5.402;2023-01-28T08:33:17;9.93;;;4.65;;
76320;SDS011;65132;52.088;5.402;2023-01-28T08:35:44;10.15;;;4.40;;
76320;SDS011;65132;52.088;5.402;2023-01-28T08:38:12;9.82;;;4.43;;
76320;SDS011;65132;52.088;5.402;2023-01-28T08:40:39;9.77;;;4.30;;
76320;SDS011;65132;52.088;5.402;2023-01-28T08:43:06;11.75;;;5.13;;
76320;SDS011;65132;52.088;5.402;2023-01-28T08:45:32;12.40;;;5.05;;
76320;SDS011;65132;52.088;5.402;2023-01-28T08:48:00;11.32;;;4.95;;
76320;SDS011;65132;52.088;5.402;2023-01-28T08:50:31;11.48;;;5.07;;
76320;SDS011;65132;52.088;5.402;2023-01-28T08:53:01;11.80;;;4.35;;
76320;SDS011;65132;52.088;5.402;2023-01-28T08:55:32;10.75;;;5.07;;
76320;SDS011;65132;52.088;5.402;2023-01-28T08:58:03;10.85;;;4.80;;
76320;SDS011;65132;52.088;5.402;2023-01-28T09:00:31;10.65;;;4.72;;
76320;SDS011;65132;52.088;5.402;2023-01-28T09:02:59;11.63;;;4.85;;
76320;SDS011;65132;52.088;5.402;2023-01-28T09:05:25;11.45;;;4.97;;
76320;SDS011;65132;52.088;5.402;2023-01-28T09:07:52;12.18;;;5.10;;
76320;SDS011;65132;52.088;5.402;2023-01-28T09:10:18;11.52;;;4.80;;
76320;SDS011;65132;52.088;5.402;2023-01-28T09:12:45;10.10;;;5.07;;
76320;SDS011;65132;52.088;5.402;2023-01-28T09:15:11;9.80;;;4.90;;
76320;SDS011;65132;52.088;5.402;2023-01-28T09:17:39;10.32;;;4.07;;
76320;SDS011;65132;52.088;5.402;2023-01-28T09:20:06;9.80;;;4.25;;
76320;SDS011;65132;52.088;5.402;2023-01-28T09:22:33;8.90;;;4.03;;
76320;SDS011;65132;52.088;5.402;2023-01-28T09:24:59;10.98;;;5.13;;
76320;SDS011;65132;52.088;5.402;2023-01-28T09:27:27;12.18;;;4.85;;
76320;SDS011;65132;52.088;5.402;2023-01-28T09:29:55;10.40;;;4.88;;
76320;SDS011;65132;52.088;5.402;2023-01-28T09:32:24;10.10;;;4.95;;
76320;SDS011;65132;52.088;5.402;2023-01-28T09:34:51;11.95;;;4.78;;
76320;SDS011;65132;52.088;5.402;2023-01-28T09:37:17;10.20;;;3.95;;
76320;SDS011;65132;52.088;5.402;2023-01-28T09:39:43;11.05;;;4.80;;
76320;SDS011;65132;52.088;5.402;2023-01-28T09:45:16;11.98;;;5.05;;
76320;SDS011;65132;52.088;5.402;2023-01-28T09:47:58;10.65;;;4.15;;
76320;SDS011;65132;52.088;5.402;2023-01-28T09:50:33;11.38;;;4.68;;
76320;SDS011;65132;52.088;5.402;2023-01-28T09:53:04;9.18;;;4.38;;
76320;SDS011;65132;52.088;5.402;2023-01-28T09:55:39;10.80;;;4.70;;
76320;SDS011;65132;52.088;5.402;2023-01-28T09:58:10;11.07;;;4.72;;
76320;SDS011;65132;52.088;5.402;2023-01-28T10:00:41;9.57;;;4.68;;
76320;SDS011;65132;52.088;5.402;2023-01-28T10:03:30;9.57;;;4.43;;
76320;SDS011;65132;52.088;5.402;2023-01-28T10:19:58;7.07;;;3.80;;
76320;SDS011;65132;52.088;5.402;2023-01-28T10:22:34;6.75;;;3.30;;
76320;SDS011;65132;52.088;5.402;2023-01-28T10:25:05;7.82;;;4.50;;
76320;SDS011;65132;52.088;5.402;2023-01-28T10:27:43;7.05;;;3.55;;
76320;SDS011;65132;52.088;5.402;2023-01-28T10:30:24;6.38;;;4.03;;
76320;SDS011;65132;52.088;5.402;2023-01-28T10:32:53;7.07;;;4.47;;
76320;SDS011;65132;52.088;5.402;2023-01-28T10:35:36;7.50;;;3.88;;
76320;SDS011;65132;52.088;5.402;2023-01-28T10:38:05;7.95;;;4.30;;
76320;SDS011;65132;52.088;5.402;2023-01-28T10:40:34;6.22;;;3.85;;
76320;SDS011;65132;52.088;5.402;2023-01-28T10:43:01;6.63;;;3.88;;
76320;SDS011;65132;52.088;5.402;2023-01-28T10:45:34;7.40;;;3.63;;
76320;SDS011;65132;52.088;5.402;2023-01-28T10:50:51;5.90;;;4.15;;
76320;SDS011;65132;52.088;5.402;2023-01-28T10:53:37;6.93;;;3.75;;
76320;SDS011;65132;52.088;5.402;2023-01-28T10:56:22;4.80;;;3.50;;
76320;SDS011;65132;52.088;5.402;2023-01-28T11:04:18;5.43;;;3.67;;
76320;SDS011;65132;52.088;5.402;2023-01-28T11:06:56;5.68;;;3.85;;
76320;SDS011;65132;52.088;5.402;2023-01-28T11:09:32;5.70;;;2.67;;
76320;SDS011;65132;52.088;5.402;2023-01-28T11:12:11;5.90;;;3.38;;
76320;SDS011;65132;52.088;5.402;2023-01-28T11:14:48;5.53;;;3.42;;
76320;SDS011;65132;52.088;5.402;2023-01-28T11:17:16;5.22;;;3.53;;
76320;SDS011;65132;52.088;5.402;2023-01-28T11:19:44;5.50;;;3.13;;
76320;SDS011;65132;52.088;5.402;2023-01-28T11:22:22;5.97;;;3.45;;
76320;SDS011;65132;52.088;5.402;2023-01-28T11:24:54;4.82;;;2.50;;
76320;SDS011;65132;52.088;5.402;2023-01-28T11:27:23;4.25;;;2.85;;
76320;SDS011;65132;52.088;5.402;2023-01-28T11:29:57;3.80;;;2.33;;
76320;SDS011;65132;52.088;5.402;2023-01-28T11:32:26;4.22;;;2.67;;
76320;SDS011;65132;52.088;5.402;2023-01-28T11:34:54;4.07;;;2.58;;
76320;SDS011;65132;52.088;5.402;2023-01-28T11:37:22;5.15;;;2.58;;
76320;SDS011;65132;52.088;5.402;2023-01-28T11:40:14;4.13;;;2.60;;
76320;SDS011;65132;52.088;5.402;2023-01-28T11:42:46;4.20;;;2.55;;
76320;SDS011;65132;52.088;5.402;2023-01-28T11:45:15;4.68;;;2.72;;
76320;SDS011;65132;52.088;5.402;2023-01-28T11:47:51;4.68;;;2.83;;
76320;SDS011;65132;52.088;5.402;2023-01-28T11:50:43;6.22;;;3.10;;
76320;SDS011;65132;52.088;5.402;2023-01-28T11:56:31;3.63;;;2.60;;
76320;SDS011;65132;52.088;5.402;2023-01-28T11:59:17;3.53;;;2.40;;
76320;SDS011;65132;52.088;5.402;2023-01-28T12:01:56;4.93;;;3.00;;
76320;SDS011;65132;52.088;5.402;2023-01-28T12:07:39;5.65;;;2.85;;
76320;SDS011;65132;52.088;5.402;2023-01-28T12:10:12;4.55;;;2.90;;
76320;SDS011;65132;52.088;5.402;2023-01-28T12:18:48;6.82;;;3.25;;
76320;SDS011;65132;52.088;5.402;2023-01-28T12:24:08;4.43;;;2.83;;
76320;SDS011;65132;52.088;5.402;2023-01-28T12:27:07;5.00;;;3.03;;
76320;SDS011;65132;52.088;5.402;2023-01-28T12:29:55;4.50;;;3.13;;
76320;SDS011;65132;52.088;5.402;2023-01-28T12:32:31;5.43;;;3.10;;
76320;SDS011;65132;52.088;5.402;2023-01-28T12:35:21;4.38;;;3.08;;
76320;SDS011;65132;52.088;5.402;2023-01-28T12:40:44;4.70;;;2.90;;
76320;SDS011;65132;52.088;5.402;2023-01-28T12:43:21;5.22;;;2.80;;
76320;SDS011;65132;52.088;5.402;2023-01-28T12:46:03;5.47;;;3.17;;
76320;SDS011;65132;52.088;5.402;2023-01-28T12:48:38;4.55;;;3.22;;
76320;SDS011;65132;52.088;5.402;2023-01-28T12:51:22;5.28;;;3.60;;
76320;SDS011;65132;52.088;5.402;2023-01-28T12:56:54;4.85;;;3.30;;
76320;SDS011;65132;52.088;5.402;2023-01-28T12:59:24;5.05;;;3.70;;
76320;SDS011;65132;52.088;5.402;2023-01-28T13:02:00;4.97;;;3.17;;
76320;SDS011;65132;52.088;5.402;2023-01-28T13:07:16;5.72;;;3.35;;
76320;SDS011;65132;52.088;5.402;2023-01-28T13:09:52;4.78;;;3.08;;
76320;SDS011;65132;52.088;5.402;2023-01-28T13:12:25;4.63;;;3.00;;
76320;SDS011;65132;52.088;5.402;2023-01-28T13:14:52;5.80;;;3.72;;
76320;SDS011;65132;52.088;5.402;2023-01-28T13:17:29;6.63;;;3.28;;
76320;SDS011;65132;52.088;5.402;2023-01-28T13:19:57;5.18;;;3.15;;
76320;SDS011;65132;52.088;5.402;2023-01-28T13:22:32;5.53;;;3.13;;
76320;SDS011;65132;52.088;5.402;2023-01-28T13:25:19;4.50;;;2.42;;
76320;SDS011;65132;52.088;5.402;2023-01-28T13:28:04;6.20;;;3.10;;
76320;SDS011;65132;52.088;5.402;2023-01-28T13:30:32;4.90;;;2.85;;
76320;SDS011;65132;52.088;5.402;2023-01-28T13:33:01;4.38;;;2.53;;
76320;SDS011;65132;52.088;5.402;2023-01-28T13:35:34;4.50;;;3.08;;
76320;SDS011;65132;52.088;5.402;2023-01-28T13:38:16;4.45;;;2.92;;
76320;SDS011;65132;52.088;5.402;2023-01-28T13:40:54;4.15;;;3.00;;
76320;SDS011;65132;52.088;5.402;2023-01-28T13:45:58;5.18;;;2.90;;
76320;SDS011;65132;52.088;5.402;2023-01-28T13:48:38;4.55;;;3.28;;
76320;SDS011;65132;52.088;5.402;2023-01-28T13:51:19;4.47;;;3.00;;
76320;SDS011;65132;52.088;5.402;2023-01-28T13:53:55;5.80;;;4.07;;
76320;SDS011;65132;52.088;5.402;2023-01-28T13:56:27;5.28;;;3.60;;
76320;SDS011;65132;52.088;5.402;2023-01-28T14:18:32;4.13;;;2.38;;
76320;SDS011;65132;52.088;5.402;2023-01-28T14:21:03;5.22;;;2.60;;
76320;SDS011;65132;52.088;5.402;2023-01-28T14:23:37;3.75;;;2.67;;
76320;SDS011;65132;52.088;5.402;2023-01-28T14:26:26;3.97;;;2.65;;
76320;SDS011;65132;52.088;5.402;2023-01-28T14:31:57;3.92;;;2.65;;
76320;SDS011;65132;52.088;5.402;2023-01-28T14:34:37;4.45;;;2.90;;
76320;SDS011;65132;52.088;5.402;2023-01-28T14:37:05;4.35;;;2.30;;
76320;SDS011;65132;52.088;5.402;2023-01-28T14:42:19;5.05;;;2.60;;
76320;SDS011;65132;52.088;5.402;2023-01-28T14:44:52;3.45;;;2.35;;
76320;SDS011;65132;52.088;5.402;2023-01-28T14:53:29;3.97;;;2.58;;
76320;SDS011;65132;52.088;5.402;2023-01-28T14:58:46;3.60;;;2.00;;
76320;SDS011;65132;52.088;5.402;2023-01-28T15:01:24;4.80;;;2.55;;
76320;SDS011;65132;52.088;5.402;2023-01-28T15:03:53;7.20;;;3.30;;
76320;SDS011;65132;52.088;5.402;2023-01-28T15:06:21;6.03;;;2.88;;
76320;SDS011;65132;52.088;5.402;2023-01-28T15:08:52;5.07;;;2.67;;
76320;SDS011;65132;52.088;5.402;2023-01-28T15:11:20;6.15;;;2.20;;
76320;SDS011;65132;52.088;5.402;2023-01-28T15:13:51;5.80;;;2.80;;
76320;SDS011;65132;52.088;5.402;2023-01-28T15:16:25;6.22;;;2.70;;
76320;SDS011;65132;52.088;5.402;2023-01-28T15:18:53;5.25;;;2.53;;
76320;SDS011;65132;52.088;5.402;2023-01-28T15:21:22;6.88;;;3.28;;
76320;SDS011;65132;52.088;5.402;2023-01-28T15:23:51;9.30;;;3.40;;
76320;SDS011;65132;52.088;5.402;2023-01-28T15:26:22;5.57;;;2.75;;
76320;SDS011;65132;52.088;5.402;2023-01-28T15:28:54;7.82;;;3.33;;
76320;SDS011;65132;52.088;5.402;2023-01-28T15:31:28;6.72;;;3.35;;
76320;SDS011;65132;52.088;5.402;2023-01-28T15:33:56;6.50;;;3.17;;
76320;SDS011;65132;52.088;5.402;2023-01-28T15:36:27;5.00;;;2.15;;
76320;SDS011;65132;52.088;5.402;2023-01-28T15:38:55;5.35;;;2.00;;
76320;SDS011;65132;52.088;5.402;2023-01-28T15:41:23;6.82;;;2.50;;
76320;SDS011;65132;52.088;5.402;2023-01-28T15:43:55;6.53;;;2.92;;
76320;SDS011;65132;52.088;5.402;2023-01-28T15:46:21;6.57;;;3.15;;
76320;SDS011;65132;52.088;5.402;2023-01-28T15:48:52;8.35;;;3.10;;
76320;SDS011;65132;52.088;5.402;2023-01-28T15:51:28;8.45;;;3.40;;
76320;SDS011;65132;52.088;5.402;2023-01-28T15:54:04;8.13;;;3.70;;
76320;SDS011;65132;52.088;5.402;2023-01-28T15:56:34;7.60;;;3.15;;
76320;SDS011;65132;52.088;5.402;2023-01-28T16:01:42;6.10;;;2.92;;
76320;SDS011;65132;52.088;5.402;2023-01-28T16:04:25;6.35;;;2.83;;
76320;SDS011;65132;52.088;5.402;2023-01-28T16:06:53;5.90;;;2.40;;
76320;SDS011;65132;52.088;5.402;2023-01-28T16:09:27;5.53;;;2.33;;
76320;SDS011;65132;52.088;5.402;2023-01-28T16:12:00;6.40;;;2.13;;
76320;SDS011;65132;52.088;5.402;2023-01-28T16:14:44;5.05;;;2.20;;
76320;SDS011;65132;52.088;5.402;2023-01-28T16:17:15;5.50;;;2.33;;
76320;SDS011;65132;52.088;5.402;2023-01-28T16:19:45;4.95;;;2.08;;
76320;SDS011;65132;52.088;5.402;2023-01-28T16:22:18;9.00;;;2.55;;
76320;SDS011;65132;52.088;5.402;2023-01-28T16:27:18;7.80;;;2.78;;
76320;SDS011;65132;52.088;5.402;2023-01-28T16:29:45;5.47;;;2.60;;
76320;SDS011;65132;52.088;5.402;2023-01-28T16:35:02;5.78;;;2.58;;
76320;SDS011;65132;52.088;5.402;2023-01-28T16:37:37;7.63;;;2.80;;
76320;SDS011;65132;52.088;5.402;2023-01-28T16:40:07;6.68;;;3.15;;
76320;SDS011;65132;52.088;5.402;2023-01-28T16:42:34;7.95;;;3.92;;
76320;SDS011;65132;52.088;5.402;2023-01-28T16:45:01;9.77;;;3.75;;
76320;SDS011;65132;52.088;5.402;2023-01-28T16:47:28;14.45;;;11.70;;
76320;SDS011;65132;52.088;5.402;2023-01-28T16:49:54;20.83;;;17.90;;
76320;SDS011;65132;52.088;5.402;2023-01-28T16:52:20;8.68;;;4.45;;